Calgary (Aerial Recon) Heliport

CA-0522 · 艾伯塔, 加拿大

METAR的历史 CA-0522 · Calgary (Aerial Recon) Heliport

下面你可以看到过去几天的METARs。 选择年份以浏览从2007年开始的旧METAR。

2024年7月22日

时间 代码 天气 温度 能见度 天花板 METAR/SPECI
13:00
V
30 °C 5 mi 30.000 ft 150° 150° 14 - 22 kt METAR CYYC 221900Z 15014G22KT 5SM FU OVC300 30/13 A3007 RMK FU2CI6 SLP159 DENSITY ALT 6000FT
12:00
V
29 °C 5 mi 30.000 ft 170° 170° 15 - 21 kt METAR CYYC 221800Z 17015G21KT 5SM FU BKN300 29/15 A3008 RMK FU2CI3 SLP165 DENSITY ALT 5900FT
11:00
V
27 °C 5 mi - 160° 160° 11 - 16 kt METAR CYYC 221700Z 16011G16KT 5SM FU SCT300 27/15 A3010 RMK FU2CI1 SLP170 DENSITY ALT 5700FT
10:00
V
26 °C 5 mi - 160° 160° 10 kt METAR CYYC 221600Z 16010KT 5SM FU FEW300 26/13 A3010 RMK FU3CI1 CI TR SLP172 DENSITY ALT 5500FT
09:00
V
24 °C 5 mi - 180° 180° 5 kt METAR CYYC 221500Z 18005KT 150V210 5SM FU SKC 24/14 A3011 RMK FU4 SLP175 DENSITY ALT 5200FT
08:00
V
21 °C 6 mi - 180° 180° 5 kt METAR CYYC 221400Z 18005KT 6SM FU SKC 21/14 A3012 RMK FU4 SLP178 DENSITY ALT 5000FT
07:00
V
19 °C 8 mi - 180° 180° 5 kt METAR CYYC 221300Z 18005KT 8SM SKC 19/14 A3012 RMK FU2 SLP180 DENSITY ALT 4700FT
06:00
V
19 °C 8 mi - 190° 190° 4 kt METAR CYYC 221200Z 19004KT 8SM SKC 19/13 A3012 RMK FU2 SLP180 DENSITY ALT 4800FT
05:00
V
19 °C 8 mi - 160° 160° 7 kt METAR CYYC 221100Z 16007KT 8SM SKC 19/13 A3012 RMK FU2 SLP178 DENSITY ALT 4700FT
04:00
V
19 °C 10 mi - 170° 170° 7 kt METAR CYYC 221000Z 17007KT 10SM SKC 19/13 A3013 RMK FU2 SLP181 DENSITY ALT 4700FT
03:00
V
19 °C 10 mi - 180° 180° 7 kt METAR CYYC 220900Z 18007KT 10SM SKC 19/13 A3014 RMK FU2 SLP187 DENSITY ALT 4700FT
02:00
V
20 °C 10 mi - 160° 160° 5 kt METAR CYYC 220800Z 16005KT 10SM SKC 20/14 A3015 RMK FU2 SLP189 DENSITY ALT 4800FT
01:00
V
22 °C 10 mi - 140° 140° 6 kt METAR CYYC 220700Z 14006KT 10SM SKC 22/14 A3017 RMK FU2 SLP192 DENSITY ALT 5000FT
00:00
V
23 °C 10 mi - 180° 180° 6 kt METAR CYYC 220600Z 18006KT 10SM SKC 23/15 A3017 RMK FU3 SLP193 DENSITY ALT 5100FT

2024年7月21日

时间 代码 天气 温度 能见度 天花板 METAR/SPECI
23:00
V
24 °C 10 mi - 180° 180° 7 kt METAR CYYC 220500Z 18007KT 10SM SKC 24/14 A3017 RMK FU2 SLP195 DENSITY ALT 5200FT
22:00
V
26 °C 10 mi - 170° 170° 7 kt METAR CYYC 220400Z 17007KT 10SM SKC 26/14 A3017 RMK FU4 SLP195 DENSITY ALT 5400FT
21:00
V
28 °C 10 mi - 150° 150° 9 kt METAR CYYC 220300Z 15009KT 10SM SKC 28/13 A3017 RMK FU4 SLP195 DENSITY ALT 5700FT
20:00
V
30 °C 8 mi - 140° 140° 9 - 16 kt METAR CYYC 220200Z 14009G16KT 8SM SKC 30/13 A3017 RMK FU4 SLP198 DENSITY ALT 5800FT
19:00
V
31 °C 8 mi - 170° 170° 11 - 16 kt METAR CYYC 220100Z 17011G16KT 110V180 8SM SKC 31/10 A3018 RMK FU4 FU SLP204 DENSITY ALT 6000FT
18:00
V
32 °C 8 mi - 150° 150° 11 kt METAR CYYC 220000Z 15011KT 100V170 8SM SKC 32/10 A3019 RMK FU4 FU SLP206 DENSITY ALT 6100FT
17:00
V
32 °C 8 mi - 150° 150° 11 kt METAR CYYC 212300Z 15011KT 110V180 8SM SCT300 32/09 A3021 RMK FU3CI1 FU SLP211 DENSITY ALT 6100FT
16:00
V
32 °C 8 mi - 140° 140° 12 kt METAR CYYC 212200Z 14012KT 8SM SCT080 32/12 A3021 WS RWY08C RMK FU4CU1 CU TR SLP212 DENSITY ALT 6100FT
15:00
V
32 °C 8 mi - 150° 150° 13 kt METAR CYYC 212100Z 15013KT 110V200 8SM SKC 32/14 A3022 RMK FU4 FU SLP214 DENSITY ALT 6100FT
14:00
V
31 °C 8 mi - 170° 170° 13 - 19 kt METAR CYYC 212000Z 17013G19KT 100V180 8SM SKC 31/14 A3024 RMK FU4 FU SLP221 DENSITY ALT 5900FT
13:00
V
31 °C 8 mi - 150° 150° 12 kt METAR CYYC 211900Z 15012KT 140V200 8SM SKC 31/14 A3025 RMK FG4 SLP222 DENSITY ALT 5900FT
12:00
V
30 °C 7 mi - 160° 160° 11 kt METAR CYYC 211800Z 16011KT 7SM SKC 30/13 A3026 RMK FU4 FU SLP225 DENSITY ALT 5700FT
11:00
V
28 °C 7 mi - 190° 190° 6 kt METAR CYYC 211700Z 19006KT 170V250 7SM SKC 28/14 A3026 RMK FU4 FU SLP227 DENSITY ALT 5500FT
10:00
V
25 °C 7 mi - Var Var 2 kt METAR CYYC 211600Z VRB02KT 7SM SKC 25/15 A3027 RMK FU4 FU SLP232 DENSITY ALT 5300FT
09:00
V
22 °C 7 mi - Var Var 2 kt METAR CYYC 211500Z VRB02KT 7SM SKC 22/15 A3027 RMK FU4 FU SLP233 DENSITY ALT 4900FT
08:00
V
19 °C 7 mi - 360° 360° 0 kt METAR CYYC 211400Z 00000KT 7SM SKC 19/15 A3027 RMK FU4 FU SLP236 DENSITY ALT 4600FT
07:00
V
17 °C 10 mi - 360° 360° 0 kt METAR CYYC 211300Z 00000KT 10SM SKC 17/14 A3028 RMK FU4 SLP240 DENSITY ALT 4300FT
06:00
V
17 °C 8 mi - Var Var 2 kt METAR CYYC 211200Z VRB02KT 8SM SKC 17/13 A3027 RMK FU4 SLP236 DENSITY ALT 4300FT
05:00
V
16 °C 10 mi - 340° 340° 2 kt METAR CYYC 211100Z 34002KT 10SM SKC 16/13 A3028 RMK FU4 SLP239 DENSITY ALT 4200FT
04:00
V
17 °C 10 mi - 010° 010° 2 kt METAR CYYC 211000Z 01002KT 10SM SKC 17/14 A3027 RMK FU4 SLP236 DENSITY ALT 4400FT
03:00
V
19 °C 8 mi - 360° 360° 2 kt METAR CYYC 210900Z 36002KT 8SM SKC 19/14 A3028 RMK FU4 SLP237 DENSITY ALT 4500FT
02:00
V
19 °C 10 mi - 360° 360° 4 kt METAR CYYC 210800Z 36004KT 10SM SKC 19/14 A3028 RMK FU4 SLP241 DENSITY ALT 4500FT
01:00
V
21 °C 10 mi - 360° 360° 0 kt METAR CYYC 210700Z 00000KT 10SM SKC 21/15 A3028 RMK FU3 SLP238 DENSITY ALT 4700FT
00:00
V
23 °C 10 mi - 150° 150° 4 kt METAR CYYC 210600Z 15004KT 10SM SKC 23/14 A3027 RMK FU4 SLP236 DENSITY ALT 5000FT

2024年7月20日

时间 代码 天气 温度 能见度 天花板 METAR/SPECI
23:00
V
24 °C 10 mi - 130° 130° 6 kt METAR CYYC 210500Z 13006KT 10SM SKC 24/15 A3027 RMK FU2 SLP236 DENSITY ALT 5100FT
22:00
V
24 °C 8 mi - 110° 110° 5 kt METAR CYYC 210400Z 11005KT 8SM SKC 24/15 A3027 RMK FU4 SLP238 DENSITY ALT 5100FT
21:00
V
27 °C 10 mi - 130° 130° 7 kt METAR CYYC 210300Z 13007KT 10SM SKC 27/14 A3026 RMK FU4 SLP231 DENSITY ALT 5500FT
20:00
V
29 °C 10 mi - 120° 120° 7 kt METAR CYYC 210200Z 12007KT 10SM SKC 29/15 A3026 RMK FU4 SLP231 DENSITY ALT 5600FT
19:00
V
29 °C 15 mi - 130° 130° 8 kt METAR CYYC 210100Z 13008KT 110V170 15SM SKC 29/15 A3025 RMK FU3 SLP230 DENSITY ALT 5700FT
18:00
V
30 °C 15 mi 25.000 ft 170° 170° 7 kt METAR CYYC 210000Z 17007KT 110V190 15SM BKN250 30/14 A3025 RMK FU6CI1 CI TR SLP229 DENSITY ALT 5800FT
17:00
V
30 °C 15 mi - 130° 130° 6 kt METAR CYYC 202300Z 13006KT 100V250 15SM FEW250 30/15 A3026 RMK FU6CI1 CI TR SLP231 DENSITY ALT 5800FT
16:00
V
29 °C 15 mi - 070° 070° 4 kt METAR CYYC 202200Z 07004KT 040V210 15SM SKC 29/13 A3026 RMK FU5 CB TOP W SLP233 DENSITY ALT 5700FT
15:00
V
29 °C 15 mi - 100° 100° 8 kt METAR CYYC 202100Z 10008KT 050V130 15SM SKC 29/14 A3027 RMK FU6 SLP237 DENSITY ALT 5700FT
14:00
V
28 °C 15 mi - 120° 120° 5 kt METAR CYYC 202000Z 12005KT 15SM SKC 28/11 A3028 RMK FU5 TCU TOPS SW SLP242 DENSITY ALT 5500FT
13:00
V
26 °C 10 mi - 040° 040° 3 kt METAR CYYC 201900Z 04003KT 010V110 10SM SKC 26/14 A3029 RMK FU5 SLP245 DENSITY ALT 5400FT
12:00
V
25 °C 9 mi - 020° 020° 5 kt METAR CYYC 201800Z 02005KT 300V040 9SM SKC 25/13 A3030 RMK FU4 SLP246 DENSITY ALT 5200FT
11:00
V
24 °C 9 mi - 340° 340° 8 kt METAR CYYC 201700Z 34008KT 310V020 9SM SKC 24/14 A3030 RMK FU4 SLP251 DENSITY ALT 5000FT
10:00
V
22 °C 9 mi - 360° 360° 11 kt METAR CYYC 201600Z 36011KT 9SM SKC 22/14 A3030 RMK FU3 SLP247 DENSITY ALT 4900FT
09:00
V
21 °C 9 mi - 360° 360° 12 kt METAR CYYC 201500Z 36012KT 9SM SKC 21/13 A3030 RMK FU3 SLP248 DENSITY ALT 4700FT
08:00
V
19 °C 9 mi - 350° 350° 10 kt METAR CYYC 201400Z 35010KT 9SM FEW120 19/13 A3029 RMK FU2AC1 AC TR SLP247 DENSITY ALT 4500FT
07:00
V
18 °C 10 mi - 340° 340° 5 kt METAR CYYC 201300Z 34005KT 10SM SCT130 18/12 A3028 RMK FU2AC1 SLP239 DENSITY ALT 4400FT
06:00
V
18 °C 8 mi 13.000 ft 340° 340° 7 kt METAR CYYC 201200Z 34007KT 8SM BKN130 18/12 A3028 RMK FU2AC3 SLP235 DENSITY ALT 4400FT
05:00
V
18 °C 10 mi - 350° 350° 11 kt METAR CYYC 201100Z 35011KT 10SM SCT140 18/11 A3026 RMK AC3 SLP227 DENSITY ALT 4400FT
04:00
V
18 °C 8 mi 14.000 ft 340° 340° 11 kt METAR CYYC 201000Z 34011KT 8SM BKN140 18/11 A3025 RMK AC5 SLP224 DENSITY ALT 4500FT
03:00
V
18 °C 8 mi 15.000 ft 360° 360° 4 kt METAR CYYC 200900Z 36004KT 300V360 8SM BKN150 18/11 A3023 RMK AC5 SLP219 DENSITY ALT 4400FT
02:00
V
18 °C 10 mi - Var Var 2 kt METAR CYYC 200800Z VRB02KT 10SM FEW130 18/11 A3022 RMK AC1 SLP216 DENSITY ALT 4500FT
01:00
V
20 °C 10 mi - 360° 360° 0 kt METAR CYYC 200700Z 00000KT 10SM FEW130 20/10 A3022 RMK AC2 SLP217 DENSITY ALT 4700FT
00:00
V
21 °C 10 mi 23.000 ft 360° 360° 0 kt METAR CYYC 200600Z 00000KT 10SM SCT170 BKN230 21/11 A3023 RMK AC3CI2 FU SLP218 DENSITY ALT 4800FT
报告变更